Unionville, VA (22567)

3:07 AM EST on February 06, 2016 (GMT -0500)
Fox Creek Farm (KS4Q) | | Change Station
CLOSE
Current Station
Personal Weather Station
Location: Unionville, VA
Elevation: 550 ft
Nearby Weather Stations

Elev 550 ft 38.26 °N, 77.96 °W | Updated 2 minutes ago

Clear
Clear
25.1 °F
Feels Like 25 °F
N
0.0
Wind Variable Wind from NNE
Gusts 0.0 mph

Today
High -- | Low -- °F
--% Chance of Precip.
Yesterday
High -- | Low -- °F
Precip. -- in
Pressure 30.43 in
Visibility 10.0 miles
Clouds Clear
Windchill 25 °F
Dew Point 19 °F
Humidity 76%
Rainfall 0.00 in
Snow Depth Not available.
7:12 AM 5:39 PM
Waning Crescent, 7% visible
METAR KOMH 060755Z AUTO 00000KT 10SM CLR M04/M05 A3043 RMK AO2
Pressure 30.43 in
Visibility 10.0 miles
Clouds Clear
Windchill 25 °F
Dew Point 19 °F
Humidity 76%
Rainfall 0.00 in
Snow Depth Not available.
7:12 AM 5:39 PM
Waning Crescent, 7% visible
METAR KOMH 060755Z AUTO 00000KT 10SM CLR M04/M05 A3043 RMK AO2

10-Day Weather Forecast

Almanac

Astronomy

Feb. 06, 2016 Rise Set
Actual Time
Civil Twilight
Nautical Twilight
Astronomical Twilight
Moon
Length of Visible Light
Length of Day
Tomorrow will be .
, % of the Moon is Illuminated

Today's Extremes

State Highs State Lows

Community

WunderPhotos

Upload Photos

1,890,933 photos uploaded!

WunderBlog® & News

Nearby

Air Quality

  Air Quality AQ Index Pollutant
Not available.

Snow Depth

Station Depth Elevation

Earthquake Activity

City Distance Mag. Time & Date
Minimum magnitude displayed is 2.5.

Coastal Water Temperatures

Place Temperature

Stations

Nearby Weather Stations

Station Location Temp. Windchill Dew Point Humidity Wind Precip. Elev Updated Type
                   

Watches & Warnings

There are currently no watches in effect.